Time;durP1;ratioP1;P1;durP2;ratioP2;P2;SDS_P1;SDS_P2;PMS_P1;PMS_P2;Temp;Humidity;BMP_temperature;BMP_pressure;BME280_temperature;BME280_humidity;BME280_pressure;Samples;Min_cycle;Max_cycle;Signal;HPM_P1;HPM_P2
2022/01/23 00:00:57;;;;;;;18.30;12.87;;;6.90;85.60;;;;;;4930868;28;20466;-46
2022/01/23 00:03:25;;;;;;;18.23;12.30;;;6.90;85.40;;;;;;4947505;28;20474;-46
2022/01/23 00:05:52;;;;;;;19.23;13.60;;;6.90;85.30;;;;;;4928415;28;20469;-46
2022/01/23 00:08:21;;;;;;;17.07;12.13;;;6.90;85.30;;;;;;4943346;28;20464;-46
2022/01/23 00:10:51;;;;;;;21.73;13.20;;;6.90;85.30;;;;;;4943515;28;20494;-47
2022/01/23 00:13:37;;;;;;;16.97;12.40;;;6.90;85.20;;;;;;4950159;28;20976;-46
2022/01/23 00:18:49;;;;;;;21.43;13.40;;;6.90;84.60;;;;;;4945797;28;20494;-47
2022/01/23 00:21:17;;;;;;;22.20;12.90;;;6.90;84.90;;;;;;4949286;28;20463;-47
2022/01/23 00:32:00;;;;;;;20.93;13.03;;;6.90;84.90;;;;;;4878152;29;20562;-46
2022/01/23 00:34:27;;;;;;;20.60;13.50;;;6.80;85.00;;;;;;4908311;28;20466;-46
2022/01/23 00:36:54;;;;;;;23.77;14.80;;;6.80;85.20;;;;;;4945325;28;20960;-47
2022/01/23 00:39:20;;;;;;;26.37;15.03;;;6.80;85.00;;;;;;4931009;28;20950;-46
2022/01/23 00:41:47;;;;;;;23.90;15.10;;;6.80;85.00;;;;;;4942562;28;20542;-46
2022/01/23 00:44:14;;;;;;;19.50;13.47;;;6.80;85.20;;;;;;4944428;28;20464;-46
2022/01/23 00:46:49;;;;;;;23.57;14.63;;;6.80;85.20;;;;;;4944234;28;20794;-47
2022/01/23 00:49:25;;;;;;;29.33;15.90;;;6.90;85.00;;;;;;4943821;28;20955;-46
2022/01/23 00:51:53;;;;;;;25.03;15.40;;;6.80;84.90;;;;;;4949660;28;21379;-46
2022/01/23 00:54:20;;;;;;;23.10;15.10;;;6.80;85.10;;;;;;4919227;28;20755;-46
2022/01/23 00:56:48;;;;;;;23.00;14.73;;;6.80;85.10;;;;;;4922521;28;20462;-47
2022/01/23 00:59:15;;;;;;;28.63;16.00;;;6.80;85.10;;;;;;4942175;28;20494;-46
2022/01/23 01:01:42;;;;;;;23.40;14.47;;;6.90;84.80;;;;;;4929419;28;20565;-47
2022/01/23 01:04:09;;;;;;;26.67;15.17;;;6.80;84.90;;;;;;4942553;28;20459;-47
2022/01/23 01:06:36;;;;;;;24.00;15.53;;;6.80;85.00;;;;;;4947789;28;20487;-47
2022/01/23 01:09:06;;;;;;;27.50;16.40;;;6.80;85.00;;;;;;4943353;28;20486;-46
2022/01/23 01:14:28;;;;;;;22.87;14.40;;;6.80;85.00;;;;;;4929496;28;20554;-47
2022/01/23 01:17:13;;;;;;;31.87;16.93;;;6.80;85.00;;;;;;4931379;29;20475;-47
2022/01/23 01:31:13;;;;;;;25.70;16.07;;;6.70;85.30;;;;;;4944410;28;20463;-47
2022/01/23 01:33:47;;;;;;;29.00;17.57;;;6.70;85.30;;;;;;4923404;28;20984;-46
2022/01/23 01:36:34;;;;;;;29.40;17.70;;;6.70;85.30;;;;;;4920628;29;20476;-47
2022/01/23 01:39:03;;;;;;;27.20;16.17;;;6.70;85.30;;;;;;4944954;28;21041;-47
2022/01/23 01:41:30;;;;;;;28.20;15.43;;;6.70;84.90;;;;;;4940750;28;20454;-48
2022/01/23 01:43:57;;;;;;;32.30;17.30;;;6.70;85.00;;;;;;4943517;28;20464;-47
2022/01/23 01:46:25;;;;;;;28.67;17.40;;;6.70;85.10;;;;;;4925159;29;20443;-48
2022/01/23 01:48:52;;;;;;;32.33;17.53;;;6.70;85.20;;;;;;4922705;28;20886;-48
2022/01/23 01:51:18;;;;;;;33.30;17.43;;;6.80;84.90;;;;;;4940437;28;20455;-48
2022/01/23 01:53:52;;;;;;;25.40;16.40;;;6.80;84.50;;;;;;4920850;29;20462;-47
2022/01/23 01:56:19;;;;;;;28.13;16.20;;;6.80;84.30;;;;;;4940933;28;20542;-47
2022/01/23 02:09:28;;;;;;;29.20;17.10;;;6.80;84.10;;;;;;4943780;28;20941;-46
2022/01/23 02:22:43;;;;;;;28.07;16.40;;;6.70;84.10;;;;;;4938643;28;20836;-47
2022/01/23 02:25:42;;;;;;;26.13;16.03;;;6.70;84.40;;;;;;4944446;28;20945;-47
2022/01/23 02:55:42;;;;;;;33.97;17.77;;;6.70;83.80;;;;;;4940787;28;20575;-47
2022/01/23 02:58:11;;;;;;;29.03;16.70;;;6.70;83.70;;;;;;4920457;28;20753;-47
2022/01/23 03:00:51;;;;;;;28.57;17.83;;;6.70;83.80;;;;;;4931112;29;20517;-46
2022/01/23 03:03:24;;;;;;;27.23;15.93;;;6.70;83.70;;;;;;4940562;28;20805;-46
2022/01/23 03:09:07;;;;;;;28.20;15.47;;;6.70;83.90;;;;;;4943397;28;20456;-47
2022/01/23 03:14:13;;;;;;;27.30;15.47;;;6.70;84.10;;;;;;4924897;29;20450;-47
2022/01/23 03:29:57;;;;;;;31.03;15.23;;;6.60;84.30;;;;;;4938354;28;20957;-46
2022/01/23 03:32:32;;;;;;;;;;;;;;;;;;;;;
2022/01/23 03:34:51;;;;;;;27.40;15.63;;;6.60;84.30;;;;;;4944611;28;20473;-46
2022/01/23 03:37:18;;;;;;;22.83;14.47;;;6.70;84.00;;;;;;4942597;28;20469;-46
2022/01/23 03:39:45;;;;;;;29.40;18.10;;;6.70;83.80;;;;;;4925367;28;20498;-46
2022/01/23 03:42:12;;;;;;;23.93;15.03;;;6.70;83.80;;;;;;4931603;29;20467;-47
2022/01/23 03:44:47;;;;;;;29.10;16.60;;;6.70;83.60;;;;;;4946807;28;20590;-47
2022/01/23 03:47:36;;;;;;;25.63;14.63;;;6.70;83.70;;;;;;4930207;28;20462;-47
2022/01/23 03:50:13;;;;;;;28.67;15.53;;;6.70;83.60;;;;;;4944357;28;20832;-47
2022/01/23 03:52:40;;;;;;;32.87;17.00;;;6.60;83.80;;;;;;4942094;28;20545;-47
2022/01/23 03:55:08;;;;;;;27.77;16.60;;;6.60;84.10;;;;;;4940967;28;20472;-47
2022/01/23 03:57:35;;;;;;;27.70;16.60;;;6.70;84.00;;;;;;4927759;28;20799;-47
2022/01/23 04:00:04;;;;;;;27.23;14.63;;;6.70;83.80;;;;;;4942398;28;20482;-47
2022/01/23 04:02:31;;;;;;;28.67;17.03;;;6.70;83.70;;;;;;4943695;28;20467;-48
2022/01/23 04:04:58;;;;;;;31.00;16.13;;;6.60;83.80;;;;;;4942339;28;20474;-47
2022/01/23 04:07:27;;;;;;;30.90;18.57;;;6.70;83.90;;;;;;4940735;28;20570;-47
2022/01/23 04:09:54;;;;;;;31.93;16.17;;;6.60;84.00;;;;;;4944815;28;20467;-47
2022/01/23 04:19:03;;;;;;;28.23;15.70;;;6.60;84.10;;;;;;4940209;28;20454;-47
2022/01/23 04:21:03;;;;;;;31.70;17.33;;;6.60;84.00;;;;;;4931303;28;20492;-46
2022/01/23 04:32:15;;;;;;;28.93;16.67;;;6.60;83.90;;;;;;4938772;28;20451;-47
2022/01/23 04:45:33;;;;;;;28.60;14.70;;;6.60;84.00;;;;;;4942167;28;20452;-46
2022/01/23 05:04:22;;;;;;;29.53;15.40;;;6.60;83.40;;;;;;4942528;28;20501;-47
2022/01/23 05:07:05;;;;;;;28.70;15.87;;;6.60;83.50;;;;;;4947425;28;20475;-46
2022/01/23 05:09:33;;;;;;;34.10;17.07;;;6.60;83.50;;;;;;4947320;28;20464;-48
2022/01/23 05:12:10;;;;;;;27.40;15.43;;;6.60;83.70;;;;;;4944238;28;20823;-47
2022/01/23 05:14:43;;;;;;;29.30;16.03;;;6.60;83.90;;;;;;4942699;28;20458;-47
2022/01/23 05:17:13;;;;;;;31.23;17.63;;;6.60;83.80;;;;;;4944309;28;21752;-47
2022/01/23 05:19:41;;;;;;;32.37;18.20;;;6.60;83.70;;;;;;4932604;28;21090;-47
2022/01/23 05:24:56;;;;;;;25.53;16.67;;;6.60;83.30;;;;;;4938356;28;20474;-47
2022/01/23 05:27:23;;;;;;;30.43;16.97;;;6.60;83.40;;;;;;4946708;28;20467;-47
2022/01/23 05:29:50;;;;;;;24.13;14.57;;;6.60;83.50;;;;;;4942324;28;20478;-47
2022/01/23 05:32:19;;;;;;;27.63;16.67;;;6.60;83.50;;;;;;4940710;28;20481;-47
2022/01/23 05:34:48;;;;;;;27.30;16.70;;;6.50;83.50;;;;;;4916121;28;20468;-47
2022/01/23 05:37:16;;;;;;;28.27;15.47;;;6.50;83.60;;;;;;4943012;28;20463;-47
2022/01/23 05:39:43;;;;;;;27.43;16.13;;;6.60;83.40;;;;;;4943363;28;20499;-47
2022/01/23 05:42:10;;;;;;;32.57;15.73;;;6.60;83.50;;;;;;4946705;28;20466;-47
2022/01/23 05:44:40;;;;;;;28.13;14.90;;;6.60;83.50;;;;;;4939218;28;20459;-47
2022/01/23 05:47:09;;;;;;;26.47;15.37;;;6.60;83.50;;;;;;4944912;28;20471;-47
2022/01/23 05:49:36;;;;;;;22.17;14.63;;;6.60;83.30;;;;;;4922723;29;20460;-47
2022/01/23 05:52:05;;;;;;;24.97;14.87;;;6.60;83.20;;;;;;4942784;28;20467;-47
2022/01/23 05:54:32;;;;;;;27.90;15.30;;;6.70;83.10;;;;;;4914786;28;21030;-47
2022/01/23 05:56:59;;;;;;;26.10;14.03;;;6.70;82.80;;;;;;4930790;28;20467;-47
2022/01/23 05:59:26;;;;;;;25.83;16.03;;;6.70;82.80;;;;;;4946632;28;20471;-47
2022/01/23 06:01:55;;;;;;;24.63;13.37;;;6.60;82.50;;;;;;4944060;28;20559;-47
2022/01/23 06:04:24;;;;;;;23.33;13.50;;;6.70;82.30;;;;;;4925059;29;20471;-47
2022/01/23 06:06:53;;;;;;;21.57;13.83;;;6.70;82.20;;;;;;4942667;28;20562;-47
2022/01/23 06:09:21;;;;;;;26.03;15.90;;;6.60;82.10;;;;;;4940928;28;20832;-47
2022/01/23 06:11:48;;;;;;;25.40;14.60;;;6.60;82.40;;;;;;4944701;28;20490;-47
2022/01/23 06:14:15;;;;;;;23.30;13.50;;;6.60;82.40;;;;;;4942222;28;20474;-47
2022/01/23 06:16:42;;;;;;;24.27;14.37;;;6.60;82.40;;;;;;4947286;28;20473;-47
2022/01/23 06:19:09;;;;;;;26.83;14.63;;;6.60;82.50;;;;;;4947111;28;20501;-47
2022/01/23 06:21:35;;;;;;;25.63;15.00;;;6.60;82.50;;;;;;4921934;28;20863;-47
2022/01/23 06:24:06;;;;;;;25.10;14.43;;;6.60;82.60;;;;;;4942454;28;20486;-47
2022/01/23 06:26:45;;;;;;;25.23;14.47;;;6.60;82.70;;;;;;4946506;28;20454;-47
2022/01/23 06:29:14;;;;;;;26.33;13.60;;;6.70;82.20;;;;;;4942482;28;20464;-46
2022/01/23 06:31:42;;;;;;;22.93;14.47;;;6.70;81.60;;;;;;4925862;28;20479;-47
2022/01/23 06:34:10;;;;;;;22.10;14.30;;;6.70;81.60;;;;;;4927292;28;20558;-47
2022/01/23 06:36:37;;;;;;;23.73;14.70;;;6.70;81.60;;;;;;4944017;28;20458;-47
2022/01/23 06:39:06;;;;;;;24.53;13.70;;;6.70;81.30;;;;;;4928302;29;20463;-46
2022/01/23 06:41:33;;;;;;;23.03;13.07;;;6.70;81.60;;;;;;4922381;28;20851;-47
2022/01/23 06:44:00;;;;;;;24.00;14.30;;;6.60;81.70;;;;;;4930082;28;20466;-47
2022/01/23 06:46:27;;;;;;;26.47;15.30;;;6.60;82.00;;;;;;4944659;28;20519;-46
2022/01/23 06:48:54;;;;;;;24.50;13.50;;;6.70;81.80;;;;;;4945404;28;20459;-46
2022/01/23 06:51:21;;;;;;;22.00;13.20;;;6.70;81.70;;;;;;4946667;28;21020;-47
2022/01/23 06:53:48;;;;;;;24.13;13.77;;;6.60;81.80;;;;;;4942936;28;20509;-47
2022/01/23 06:56:15;;;;;;;20.03;12.90;;;6.60;81.70;;;;;;4942767;28;20471;-46
2022/01/23 06:58:42;;;;;;;22.00;13.90;;;6.60;81.80;;;;;;4943772;28;20862;-46
2022/01/23 07:01:09;;;;;;;20.60;13.43;;;6.60;81.80;;;;;;4941603;28;20509;-48
2022/01/23 07:03:37;;;;;;;21.63;13.67;;;6.60;81.70;;;;;;4926258;28;20459;-46
2022/01/23 07:06:04;;;;;;;22.23;12.57;;;6.60;81.60;;;;;;4945692;28;21112;-47
2022/01/23 07:08:32;;;;;;;19.97;12.03;;;6.60;81.70;;;;;;4927094;28;20473;-48
2022/01/23 07:10:59;;;;;;;24.33;13.70;;;6.60;81.60;;;;;;4940415;28;20467;-46
2022/01/23 07:13:26;;;;;;;25.97;14.30;;;6.60;81.70;;;;;;4944631;28;20474;-47
2022/01/23 07:15:53;;;;;;;22.83;13.53;;;6.60;81.30;;;;;;4940733;28;20463;-47
2022/01/23 07:18:21;;;;;;;20.97;13.83;;;6.60;81.20;;;;;;4945556;28;20466;-46
2022/01/23 07:20:48;;;;;;;24.70;12.33;;;6.60;81.40;;;;;;4939455;28;20806;-46
2022/01/23 07:23:21;;;;;;;22.70;12.70;;;6.60;81.60;;;;;;4943692;28;20492;-47
2022/01/23 07:25:49;;;;;;;22.33;12.23;;;6.60;81.80;;;;;;4941281;28;20471;-47
2022/01/23 07:28:19;;;;;;;20.30;12.70;;;6.50;82.20;;;;;;4946109;28;20463;-47
2022/01/23 07:33:15;;;;;;;17.23;10.70;;;6.60;81.80;;;;;;4943144;28;20583;-47
2022/01/23 07:35:42;;;;;;;19.00;12.43;;;6.60;81.50;;;;;;4943246;28;21247;-47
2022/01/23 07:38:11;;;;;;;25.53;14.10;;;6.50;81.60;;;;;;4922574;28;20472;-46
2022/01/23 07:40:38;;;;;;;22.13;14.17;;;6.50;81.80;;;;;;4938547;28;20491;-47
2022/01/23 07:43:05;;;;;;;18.73;11.70;;;6.50;82.10;;;;;;4925910;28;20843;-46
2022/01/23 07:45:31;;;;;;;19.87;12.33;;;6.50;82.10;;;;;;4928627;28;20518;-46
2022/01/23 07:47:58;;;;;;;21.13;13.30;;;6.60;82.20;;;;;;4942158;28;20468;-47
2022/01/23 07:50:25;;;;;;;21.27;13.37;;;6.60;81.80;;;;;;4938193;28;20467;-47
2022/01/23 07:52:52;;;;;;;21.60;12.43;;;6.50;82.10;;;;;;4922663;28;20472;-47
2022/01/23 07:55:18;;;;;;;18.57;12.70;;;6.50;82.20;;;;;;4941430;28;20957;-47
2022/01/23 07:57:45;;;;;;;23.80;13.93;;;6.50;82.00;;;;;;4941065;28;21048;-46
2022/01/23 08:00:13;;;;;;;22.27;13.83;;;6.60;82.10;;;;;;4918240;28;20462;-47
2022/01/23 08:02:40;;;;;;;20.37;12.90;;;6.50;82.00;;;;;;4930013;29;21149;-46
2022/01/23 08:05:09;;;;;;;20.37;12.67;;;6.60;81.80;;;;;;4942227;28;20486;-47
2022/01/23 08:07:37;;;;;;;21.13;14.37;;;6.60;81.70;;;;;;4937131;28;22771;-47
2022/01/23 08:10:06;;;;;;;27.27;15.67;;;6.60;81.80;;;;;;4929472;29;20472;-47
2022/01/23 08:12:33;;;;;;;20.73;14.23;;;6.60;81.50;;;;;;4932778;29;20507;-47
2022/01/23 08:15:01;;;;;;;29.43;14.80;;;6.60;81.60;;;;;;4925548;29;20459;-47
2022/01/23 08:17:30;;;;;;;19.93;13.03;;;6.60;81.70;;;;;;4942922;28;20525;-47
2022/01/23 08:20:00;;;;;;;24.40;14.23;;;6.60;81.80;;;;;;4935570;29;20513;-47
2022/01/23 08:22:30;;;;;;;23.17;14.57;;;6.60;81.80;;;;;;4943465;29;20494;-49
2022/01/23 08:24:57;;;;;;;21.60;13.77;;;6.60;81.80;;;;;;4959176;28;20523;-49
2022/01/23 08:27:28;;;;;;;23.20;14.57;;;6.70;81.60;;;;;;4937603;29;20547;-50
2022/01/23 08:29:59;;;;;;;23.80;16.17;;;6.70;81.50;;;;;;4948303;28;20489;-47
2022/01/23 08:32:26;;;;;;;23.70;14.07;;;6.60;81.60;;;;;;4932198;28;20454;-47
2022/01/23 08:34:53;;;;;;;27.27;14.83;;;6.60;81.80;;;;;;4947353;28;20476;-49
2022/01/23 08:37:20;;;;;;;22.73;14.13;;;6.60;81.80;;;;;;4960928;28;20455;-50
2022/01/23 08:39:47;;;;;;;25.77;15.93;;;6.70;81.80;;;;;;4950655;28;20467;-46
2022/01/23 08:42:16;;;;;;;26.70;15.80;;;6.60;81.80;;;;;;4953056;28;20583;-49
2022/01/23 08:44:45;;;;;;;21.87;13.97;;;6.70;81.50;;;;;;4953355;28;20462;-49
2022/01/23 08:47:12;;;;;;;20.57;13.80;;;6.70;81.40;;;;;;4940524;29;20463;-49
2022/01/23 08:49:45;;;;;;;25.77;16.80;;;6.80;81.00;;;;;;4945601;29;20455;-49
2022/01/23 08:52:18;;;;;;;22.60;12.90;;;6.80;80.90;;;;;;4955898;28;20491;-49
2022/01/23 08:54:49;;;;;;;23.70;12.40;;;6.80;81.10;;;;;;4957154;28;20999;-50
2022/01/23 08:57:18;;;;;;;21.20;13.07;;;6.90;81.00;;;;;;4954946;28;20459;-49
2022/01/23 08:59:45;;;;;;;23.20;13.87;;;6.90;80.70;;;;;;4951818;28;20482;-49
2022/01/23 09:02:12;;;;;;;20.23;12.53;;;6.90;80.60;;;;;;4952044;28;20834;-49
2022/01/23 09:04:39;;;;;;;21.07;12.87;;;6.90;80.40;;;;;;4950308;28;20463;-49
2022/01/23 09:07:08;;;;;;;22.23;13.20;;;6.80;80.50;;;;;;4960034;28;20495;-47
2022/01/23 09:09:38;;;;;;;24.80;14.10;;;6.80;80.80;;;;;;4929577;29;20485;-46
2022/01/23 09:12:20;;;;;;;23.60;13.57;;;6.90;80.70;;;;;;4945332;28;20546;-47
2022/01/23 09:14:48;;;;;;;22.10;13.47;;;6.90;80.40;;;;;;4942273;28;21014;-46
2022/01/23 09:17:15;;;;;;;23.30;12.77;;;6.80;80.50;;;;;;4951140;28;20966;-49
2022/01/23 09:19:45;;;;;;;19.30;12.83;;;6.90;80.50;;;;;;4940864;28;20470;-49
2022/01/23 09:22:12;;;;;;;20.03;12.73;;;6.90;80.50;;;;;;4953675;28;20526;-49
2022/01/23 09:24:39;;;;;;;20.77;13.60;;;6.90;80.50;;;;;;4959844;28;20479;-49
2022/01/23 09:27:08;;;;;;;20.90;12.30;;;6.90;80.50;;;;;;4939015;29;20463;-49
2022/01/23 09:29:38;;;;;;;20.40;12.43;;;6.80;80.70;;;;;;4937515;28;20463;-50
2022/01/23 09:32:10;;;;;;;21.03;12.57;;;6.80;80.80;;;;;;4955372;28;20471;-49
2022/01/23 09:34:40;;;;;;;23.50;13.23;;;6.80;81.00;;;;;;4940001;28;20486;-49
2022/01/23 09:37:10;;;;;;;21.43;12.70;;;6.80;80.90;;;;;;4939548;28;20463;-50
2022/01/23 09:39:39;;;;;;;22.97;12.43;;;6.90;80.20;;;;;;4948874;28;20558;-49
2022/01/23 09:42:12;;;;;;;19.53;12.37;;;6.90;80.00;;;;;;4929515;28;21059;-50
2022/01/23 09:44:51;;;;;;;21.50;12.27;;;6.90;79.60;;;;;;4939956;28;21014;-50
2022/01/23 09:47:20;;;;;;;19.93;13.43;;;6.90;79.30;;;;;;4925569;29;20462;-50
2022/01/23 09:49:48;;;;;;;24.20;13.53;;;6.90;79.60;;;;;;4944266;28;20545;-50
2022/01/23 09:52:16;;;;;;;24.40;14.40;;;6.90;79.90;;;;;;4943727;28;20985;-49
2022/01/23 09:54:52;;;;;;;21.50;14.37;;;6.90;79.80;;;;;;4947018;28;20560;-49
2022/01/23 09:57:24;;;;;;;26.20;15.30;;;7.00;79.80;;;;;;4945043;28;20626;-49
2022/01/23 09:59:54;;;;;;;20.00;12.20;;;6.90;80.10;;;;;;4943164;28;20466;-50
2022/01/23 10:02:23;;;;;;;25.33;14.50;;;6.90;80.30;;;;;;4925707;28;20495;-49
2022/01/23 10:04:51;;;;;;;27.40;14.73;;;7.00;80.40;;;;;;4930125;28;20474;-49
2022/01/23 10:07:20;;;;;;;22.40;14.13;;;6.90;80.60;;;;;;4946357;28;20509;-50
2022/01/23 10:09:54;;;;;;;25.73;13.63;;;7.00;80.60;;;;;;4944951;28;20457;-50
2022/01/23 10:12:26;;;;;;;22.30;12.13;;;7.00;80.50;;;;;;4925941;28;21087;-49
2022/01/23 10:14:57;;;;;;;19.37;12.80;;;7.00;80.40;;;;;;4938293;28;20685;-49
2022/01/23 10:17:23;;;;;;;19.63;13.00;;;7.10;80.30;;;;;;4931882;28;20467;-50
2022/01/23 10:19:50;;;;;;;24.90;12.80;;;7.10;80.30;;;;;;4932353;29;20972;-50
2022/01/23 10:22:18;;;;;;;22.53;13.20;;;7.10;80.20;;;;;;4943849;28;20494;-51
2022/01/23 10:24:45;;;;;;;19.77;13.20;;;7.10;80.10;;;;;;4931022;29;22152;-49
2022/01/23 10:27:11;;;;;;;18.57;13.03;;;7.10;79.90;;;;;;4931447;28;20458;-51
2022/01/23 10:29:43;;;;;;;20.10;12.37;;;7.20;79.80;;;;;;4930159;28;20461;-49
2022/01/23 10:32:20;;;;;;;20.40;12.10;;;7.20;79.40;;;;;;4924715;29;20489;-49
2022/01/23 10:35:00;;;;;;;21.00;12.33;;;7.20;79.50;;;;;;4918779;28;21067;-50
2022/01/23 10:37:39;;;;;;;17.70;11.00;;;7.30;79.00;;;;;;4955097;28;20474;-49
2022/01/23 10:40:11;;;;;;;18.87;12.33;;;7.40;78.60;;;;;;4939117;28;20465;-49
2022/01/23 10:48:35;;;;;;;18.77;12.00;;;7.40;78.30;;;;;;4941947;28;20466;-49
2022/01/23 10:51:15;;;;;;;21.73;13.20;;;7.40;78.40;;;;;;4941080;28;20482;-49
2022/01/23 10:54:17;;;;;;;19.50;13.13;;;7.40;78.60;;;;;;4920275;28;20498;-49
2022/01/23 10:57:00;;;;;;;20.27;11.50;;;7.50;78.60;;;;;;4930278;28;20471;-47
2022/01/23 10:59:46;;;;;;;19.00;12.43;;;7.50;78.50;;;;;;4942466;28;20776;-47
2022/01/23 11:02:21;;;;;;;17.43;12.20;;;7.50;78.60;;;;;;4942419;28;21046;-47
2022/01/23 11:05:04;;;;;;;21.60;10.90;;;7.50;78.40;;;;;;4925093;29;20464;-47
2022/01/23 11:07:31;;;;;;;21.70;12.03;;;7.60;78.00;;;;;;4943313;28;20862;-47
2022/01/23 11:10:03;;;;;;;27.80;15.97;;;7.60;78.10;;;;;;4924816;28;20463;-47
2022/01/23 11:18:07;;;;;;;23.03;13.50;;;7.70;77.60;;;;;;4915280;28;20521;-48
2022/01/23 11:20:36;;;;;;;20.10;12.07;;;7.70;77.80;;;;;;4942080;28;20490;-47
2022/01/23 11:23:10;;;;;;;22.77;13.80;;;7.80;78.00;;;;;;4918811;29;20995;-48
2022/01/23 11:25:37;;;;;;;24.93;13.20;;;7.90;77.80;;;;;;4939604;28;20463;-47
2022/01/23 11:28:05;;;;;;;23.57;13.13;;;7.90;77.70;;;;;;4930214;28;21003;-47
2022/01/23 11:30:44;;;;;;;25.30;12.70;;;7.90;77.80;;;;;;4943473;28;20455;-47
2022/01/23 11:33:15;;;;;;;19.43;13.27;;;7.90;78.00;;;;;;4942400;28;20511;-46
2022/01/23 11:35:42;;;;;;;24.50;13.27;;;8.00;78.00;;;;;;4939576;28;20573;-46
2022/01/23 11:38:13;;;;;;;26.20;14.53;;;8.00;78.00;;;;;;4943313;28;20554;-47
2022/01/23 11:54:46;;;;;;;19.97;11.57;;;8.20;76.70;;;;;;4941664;28;21105;-46
2022/01/23 11:57:45;;;;;;;17.63;11.43;;;8.20;76.30;;;;;;4944037;28;21172;-47
2022/01/23 12:00:34;;;;;;;21.43;12.63;;;8.20;76.10;;;;;;4925434;28;20478;-47
2022/01/23 12:03:08;;;;;;;22.00;12.10;;;8.20;76.30;;;;;;4944343;28;21012;-47
2022/01/23 12:05:38;;;;;;;17.13;10.20;;;8.20;76.60;;;;;;4946281;28;20455;-46
2022/01/23 12:08:31;;;;;;;14.90;10.70;;;8.20;76.50;;;;;;4944799;28;20462;-48
2022/01/23 12:17:09;;;;;;;15.90;10.43;;;8.30;76.10;;;;;;4942744;28;20467;-46
2022/01/23 12:19:48;;;;;;;19.63;12.00;;;8.30;76.10;;;;;;4945645;28;20454;-46
2022/01/23 12:22:34;;;;;;;20.57;10.90;;;8.30;76.20;;;;;;4928336;29;20522;-47
2022/01/23 12:25:15;;;;;;;16.97;10.80;;;8.30;76.10;;;;;;4943662;28;20482;-47
2022/01/23 12:27:43;;;;;;;18.20;10.43;;;8.30;75.90;;;;;;4937827;29;20992;-49
2022/01/23 12:30:22;;;;;;;16.10;10.37;;;8.30;75.80;;;;;;4951274;28;20467;-50
2022/01/23 12:33:13;;;;;;;20.47;11.07;;;8.30;75.70;;;;;;4940558;28;20546;-49
2022/01/23 12:35:45;;;;;;;20.20;11.57;;;8.30;75.80;;;;;;4955243;28;20463;-49
2022/01/23 12:38:13;;;;;;;16.20;10.07;;;8.30;75.10;;;;;;4922994;28;20485;-49
2022/01/23 12:40:47;;;;;;;19.87;10.60;;;8.30;75.30;;;;;;4951852;28;20495;-49
2022/01/23 12:43:24;;;;;;;19.20;12.10;;;8.40;75.30;;;;;;4952672;28;20543;-47
2022/01/23 12:45:53;;;;;;;23.00;11.60;;;8.40;75.50;;;;;;4925507;28;20471;-47
2022/01/23 12:48:26;;;;;;;17.37;11.43;;;8.40;75.40;;;;;;4929529;28;20558;-46
2022/01/23 12:51:06;;;;;;;22.93;12.80;;;8.40;75.10;;;;;;4945263;28;20459;-47
2022/01/23 12:53:51;;;;;;;17.87;11.27;;;8.50;74.70;;;;;;4939806;28;20807;-48
2022/01/23 12:56:20;;;;;;;19.60;11.80;;;8.50;74.40;;;;;;4940270;28;20470;-47
2022/01/23 12:59:07;;;;;;;20.93;12.00;;;8.50;74.40;;;;;;4939921;28;20463;-50
2022/01/23 13:01:35;;;;;;;16.50;9.83;;;8.50;74.60;;;;;;4943908;28;20474;-49
2022/01/23 13:04:09;;;;;;;20.23;11.47;;;8.50;74.50;;;;;;4942049;28;20462;-51
2022/01/23 13:06:39;;;;;;;20.43;11.37;;;8.50;74.60;;;;;;4945479;28;20476;-49
2022/01/23 13:32:36;;;;;;;11.73;6.80;;;8.40;73.60;;;;;;4945794;28;20487;-48
2022/01/23 13:35:07;;;;;;;8.53;6.23;;;8.40;73.30;;;;;;4944582;28;20451;-47
2022/01/23 13:37:37;;;;;;;7.00;5.00;;;8.40;72.70;;;;;;4930809;29;20474;-47
2022/01/23 13:40:07;;;;;;;9.57;5.83;;;8.40;72.80;;;;;;4944961;28;20642;-47
2022/01/23 13:49:53;;;;;;;12.80;7.10;;;8.30;73.20;;;;;;4940867;28;20837;-46
2022/01/23 13:57:33;;;;;;;10.80;6.00;;;8.30;72.60;;;;;;4941096;28;20478;-47
2022/01/23 14:02:25;;;;;;;9.00;6.30;;;8.30;72.70;;;;;;4942896;28;20590;-47
2022/01/23 14:04:52;;;;;;;8.10;6.43;;;8.30;72.80;;;;;;4943869;28;20462;-47
2022/01/23 14:07:22;;;;;;;12.70;7.10;;;8.30;72.90;;;;;;4942533;28;20475;-47
2022/01/23 14:09:54;;;;;;;11.17;7.17;;;8.30;73.00;;;;;;4921097;28;20562;-47
2022/01/23 14:12:22;;;;;;;11.00;6.93;;;8.30;73.20;;;;;;4925498;28;21036;-47
2022/01/23 14:15:18;;;;;;;13.13;6.87;;;8.20;73.50;;;;;;4938092;28;20469;-47
2022/01/23 14:18:07;;;;;;;12.00;5.97;;;8.20;73.60;;;;;;4945331;28;20466;-48
2022/01/23 14:21:14;;;;;;;7.53;5.60;;;8.20;73.50;;;;;;4932257;28;20570;-47
2022/01/23 14:23:41;;;;;;;6.03;4.60;;;8.20;73.00;;;;;;4926873;29;20536;-47
2022/01/23 14:26:12;;;;;;;10.60;5.50;;;8.20;72.50;;;;;;4945612;28;20825;-47
2022/01/23 14:28:48;;;;;;;7.60;5.10;;;8.10;72.60;;;;;;4941624;28;20465;-47
2022/01/23 14:31:21;;;;;;;8.13;5.73;;;8.10;72.80;;;;;;4946528;28;20956;-47
2022/01/23 14:33:53;;;;;;;10.47;6.20;;;8.10;72.80;;;;;;4933683;28;20459;-47
2022/01/23 14:36:38;;;;;;;8.23;5.10;;;8.10;72.80;;;;;;4946888;28;20833;-47
2022/01/23 14:39:06;;;;;;;9.33;4.70;;;8.10;72.60;;;;;;4932078;29;20553;-47
2022/01/23 14:41:36;;;;;;;8.27;5.43;;;8.10;72.40;;;;;;4940712;28;20459;-47
2022/01/23 14:44:20;;;;;;;9.90;5.73;;;8.10;72.60;;;;;;4944674;28;20521;-47
2022/01/23 14:46:57;;;;;;;6.97;5.10;;;8.10;72.70;;;;;;4940709;28;20961;-46
2022/01/23 14:49:27;;;;;;;8.97;5.93;;;8.10;72.80;;;;;;4922621;29;20499;-47
2022/01/23 14:51:56;;;;;;;8.87;5.90;;;8.10;72.90;;;;;;4930727;28;20559;-46
2022/01/23 14:54:24;;;;;;;8.80;6.07;;;8.00;73.10;;;;;;4945091;28;20526;-46
2022/01/23 14:56:51;;;;;;;14.27;8.10;;;8.00;72.90;;;;;;4937411;28;20503;-47
2022/01/23 14:59:23;;;;;;;13.77;8.63;;;8.00;73.10;;;;;;4921247;28;20468;-46
2022/01/23 15:01:49;;;;;;;12.60;7.90;;;8.00;73.10;;;;;;4940465;28;20468;-46
2022/01/23 15:04:20;;;;;;;11.33;7.97;;;8.00;73.30;;;;;;4945075;28;20976;-46
2022/01/23 15:06:48;;;;;;;13.00;8.80;;;8.00;73.40;;;;;;4946947;28;20926;-47
2022/01/23 15:09:16;;;;;;;13.33;8.87;;;8.00;73.60;;;;;;4927655;28;20541;-47
2022/01/23 15:11:43;;;;;;;14.27;9.00;;;8.00;73.90;;;;;;4933028;28;20506;-47
2022/01/23 15:14:11;;;;;;;13.80;9.00;;;8.00;73.70;;;;;;4944149;28;20459;-46
2022/01/23 15:16:39;;;;;;;13.57;8.83;;;8.00;74.00;;;;;;4942457;28;20750;-46
2022/01/23 15:19:07;;;;;;;15.57;9.40;;;7.90;73.90;;;;;;4930242;28;20475;-47
2022/01/23 15:21:34;;;;;;;17.87;8.80;;;7.90;74.00;;;;;;4943869;28;20990;-47
2022/01/23 15:24:02;;;;;;;17.07;9.40;;;7.90;74.00;;;;;;4928731;29;20490;-47
2022/01/23 15:26:34;;;;;;;13.27;8.20;;;7.90;74.10;;;;;;4942898;28;20478;-46
2022/01/23 15:29:02;;;;;;;14.87;8.30;;;7.90;74.10;;;;;;4939499;28;20570;-47
2022/01/23 15:31:30;;;;;;;11.80;7.87;;;7.90;74.40;;;;;;4921800;29;21022;-46
2022/01/23 15:33:56;;;;;;;14.63;10.40;;;7.90;74.40;;;;;;4924054;28;20479;-46
2022/01/23 15:36:23;;;;;;;15.27;9.63;;;7.90;74.40;;;;;;4943977;28;20553;-46
2022/01/23 15:38:50;;;;;;;12.77;8.17;;;7.90;74.50;;;;;;4943268;28;20470;-46
2022/01/23 15:41:17;;;;;;;11.17;7.67;;;7.80;74.70;;;;;;4922843;29;20659;-47
2022/01/23 15:43:44;;;;;;;13.77;9.20;;;7.90;74.40;;;;;;4928962;29;20495;-47
2022/01/23 15:46:14;;;;;;;9.17;7.00;;;7.80;74.20;;;;;;4920478;28;20550;-46
2022/01/23 15:48:42;;;;;;;11.33;6.50;;;7.90;74.20;;;;;;4939795;28;20965;-47
2022/01/23 15:51:09;;;;;;;7.67;5.60;;;7.90;73.40;;;;;;4930490;29;20454;-47
2022/01/23 15:53:37;;;;;;;6.77;5.53;;;7.80;73.60;;;;;;4941440;28;20967;-47
2022/01/23 15:56:04;;;;;;;7.63;6.17;;;7.80;73.40;;;;;;4929349;28;20471;-47
2022/01/23 15:58:31;;;;;;;10.70;7.97;;;7.80;73.00;;;;;;4929872;28;20467;-49
2022/01/23 16:00:59;;;;;;;9.90;8.40;;;7.70;71.90;;;;;;4929234;28;21126;-49
2022/01/23 16:03:27;;;;;;;8.10;6.90;;;7.70;70.90;;;;;;4935122;28;20491;-49
2022/01/23 16:05:56;;;;;;;7.10;5.80;;;7.70;70.70;;;;;;4917657;28;20884;-49
2022/01/23 16:08:24;;;;;;;6.00;5.30;;;7.70;70.60;;;;;;4920337;29;20518;-50
2022/01/23 16:10:51;;;;;;;5.87;4.97;;;7.70;70.80;;;;;;4934627;28;21057;-49
2022/01/23 16:13:18;;;;;;;6.27;4.53;;;7.70;70.60;;;;;;4943765;28;21067;-49
2022/01/23 16:15:45;;;;;;;6.20;4.77;;;7.70;70.60;;;;;;4935237;28;20470;-49
2022/01/23 16:18:12;;;;;;;6.07;4.67;;;7.70;70.60;;;;;;4920835;28;20468;-49
2022/01/23 16:20:41;;;;;;;6.00;4.63;;;7.70;70.80;;;;;;4934961;28;20470;-49
2022/01/23 16:23:08;;;;;;;5.87;4.30;;;7.70;70.90;;;;;;4946706;28;20550;-48
2022/01/23 16:25:55;;;;;;;7.67;5.13;;;7.60;71.00;;;;;;4937456;28;20454;-50
2022/01/23 16:28:22;;;;;;;7.47;4.80;;;7.60;71.00;;;;;;4919261;28;20474;-49